Time;durP1;ratioP1;P1;durP2;ratioP2;P2;SDS_P1;SDS_P2;PMS_P1;PMS_P2;Temp;Humidity;BMP_temperature;BMP_pressure;BME280_temperature;BME280_humidity;BME280_pressure;Samples;Min_cycle;Max_cycle;Signal;HPM_P1;HPM_P2
2023/08/30 00:00:21;;;;;;;15.63;9.13;;;;;;;;;;4951081;29;20150;-88
2023/08/30 00:02:55;;;;;;;15.80;8.45;;;;;;;;;;4951654;29;20054;-89
2023/08/30 00:05:25;;;;;;;18.15;8.50;;;;;;;;;;4950851;28;20062;-89
2023/08/30 00:08:06;;;;;;;13.10;8.02;;;;;;;;;;4961255;28;20050;-88
2023/08/30 00:14:09;;;;;;;8.80;6.60;;;;;;;;;;4948015;29;20063;-88
2023/08/30 00:16:40;;;;;;;8.98;6.80;;;;;;;;;;4930516;28;20055;-89
2023/08/30 00:19:24;;;;;;;11.45;7.28;;;;;;;;;;4930330;29;20031;-89
2023/08/30 00:22:07;;;;;;;11.52;7.65;;;;;;;;;;4945149;29;20088;-89
2023/08/30 00:24:48;;;;;;;10.82;6.47;;;;;;;;;;4945415;29;20043;-89
2023/08/30 00:27:16;;;;;;;11.70;7.50;;;;;;;;;;4946401;29;20128;-89
2023/08/30 00:29:44;;;;;;;9.23;6.63;;;;;;;;;;4931689;28;20065;-89
2023/08/30 00:32:14;;;;;;;10.13;7.20;;;;;;;;;;4946790;29;20058;-89
2023/08/30 00:34:59;;;;;;;8.50;7.03;;;;;;;;;;4946987;29;20067;-89
2023/08/30 00:37:30;;;;;;;10.32;6.60;;;;;;;;;;4947429;29;20268;-89
2023/08/30 00:39:59;;;;;;;10.60;6.18;;;;;;;;;;4946517;29;20425;-89
2023/08/30 00:42:40;;;;;;;14.25;8.00;;;;;;;;;;4947447;29;20050;-89
2023/08/30 00:45:10;;;;;;;11.43;7.47;;;;;;;;;;4931351;29;20078;-88
2023/08/30 00:47:41;;;;;;;10.07;6.65;;;;;;;;;;4947864;29;20090;-89
2023/08/30 00:50:09;;;;;;;8.80;6.00;;;;;;;;;;4947333;29;20083;-89
2023/08/30 01:03:28;;;;;;;7.45;5.97;;;;;;;;;;5120331;27;20522;-89
2023/08/30 01:06:02;;;;;;;9.75;5.97;;;;;;;;;;5100389;28;20066;-88
2023/08/30 01:08:33;;;;;;;8.55;5.78;;;;;;;;;;5100967;28;20040;-88
2023/08/30 01:11:20;;;;;;;7.97;6.40;;;;;;;;;;5087510;28;20206;-88
2023/08/30 01:14:18;;;;;;;9.70;5.93;;;;;;;;;;5088836;28;20052;-86
2023/08/30 01:16:51;;;;;;;9.05;6.82;;;;;;;;;;5090884;28;20096;-86
2023/08/30 01:19:30;;;;;;;8.75;6.55;;;;;;;;;;5093677;28;20036;-86
2023/08/30 01:22:17;;;;;;;9.98;6.70;;;;;;;;;;5093034;28;20047;-86
2023/08/30 01:25:09;;;;;;;9.23;6.32;;;;;;;;;;5086185;28;20056;-88
2023/08/30 01:27:39;;;;;;;7.70;5.72;;;;;;;;;;5083499;28;20063;-87
2023/08/30 01:30:11;;;;;;;11.65;6.30;;;;;;;;;;5085014;28;20052;-87
2023/08/30 01:32:54;;;;;;;;;;;;;;;;;;;;;
2023/08/30 01:35:32;;;;;;;8.05;6.28;;;;;;;;;;5101746;28;20048;-87
2023/08/30 01:38:06;;;;;;;9.35;5.95;;;;;;;;;;5084105;28;20160;-85
2023/08/30 01:40:38;;;;;;;10.70;7.03;;;;;;;;;;5084523;28;20169;-87
2023/08/30 01:43:26;;;;;;;11.43;7.07;;;;;;;;;;5101649;28;20052;-86
2023/08/30 01:46:10;;;;;;;12.98;7.90;;;;;;;;;;5090950;28;20098;-86
2023/08/30 01:48:40;;;;;;;13.35;7.85;;;;;;;;;;5086882;28;20055;-86
2023/08/30 01:51:11;;;;;;;13.68;8.50;;;;;;;;;;5085912;28;20074;-86
2023/08/30 01:53:56;;;;;;;13.88;7.85;;;;;;;;;;5085919;28;20333;-87
2023/08/30 01:56:27;;;;;;;16.95;8.15;;;;;;;;;;5101254;28;20190;-87
2023/08/30 01:58:55;;;;;;;13.63;8.05;;;;;;;;;;5086545;28;20147;-87
2023/08/30 02:01:26;;;;;;;11.65;6.80;;;;;;;;;;5083823;28;20063;-88
2023/08/30 02:04:21;;;;;;;12.90;7.63;;;;;;;;;;5072348;28;20059;-87
2023/08/30 02:07:11;;;;;;;15.27;6.47;;;;;;;;;;5071313;28;20059;-88
2023/08/30 02:09:54;;;;;;;11.25;6.63;;;;;;;;;;5090562;28;20112;-86
2023/08/30 02:12:53;;;;;;;11.73;7.43;;;;;;;;;;5074878;28;20054;-88
2023/08/30 02:15:27;;;;;;;9.50;6.38;;;;;;;;;;5073076;28;20080;-87
2023/08/30 02:18:07;;;;;;;8.52;5.88;;;;;;;;;;5072414;28;20116;-87
2023/08/30 02:24:04;;;;;;;8.88;6.10;;;;;;;;;;5087328;28;20038;-87
2023/08/30 02:26:37;;;;;;;9.35;6.68;;;;;;;;;;5071248;28;20075;-87
2023/08/30 02:29:08;;;;;;;9.77;6.65;;;;;;;;;;5072078;28;20056;-87
2023/08/30 02:31:49;;;;;;;10.95;6.40;;;;;;;;;;5060396;28;20104;-87
2023/08/30 02:34:17;;;;;;;7.82;6.43;;;;;;;;;;5069153;28;20099;-87
2023/08/30 02:36:46;;;;;;;10.02;6.53;;;;;;;;;;5069395;28;20048;-88
2023/08/30 02:39:15;;;;;;;15.35;6.25;;;;;;;;;;5070617;28;20174;-88
2023/08/30 02:41:43;;;;;;;8.88;6.60;;;;;;;;;;5070782;28;20143;-87
2023/08/30 02:44:11;;;;;;;8.32;6.38;;;;;;;;;;5067673;28;20048;-86
2023/08/30 02:46:41;;;;;;;7.95;6.63;;;;;;;;;;5084473;28;20112;-87
2023/08/30 02:49:21;;;;;;;11.15;6.22;;;;;;;;;;5067146;28;20063;-86
2023/08/30 02:51:51;;;;;;;13.25;6.68;;;;;;;;;;5066080;28;20049;-86
2023/08/30 02:54:18;;;;;;;10.00;7.20;;;;;;;;;;5067202;28;20062;-87
2023/08/30 02:56:52;;;;;;;8.63;6.85;;;;;;;;;;5068233;28;20048;-87
2023/08/30 02:59:21;;;;;;;8.55;6.45;;;;;;;;;;5067268;28;20040;-87
2023/08/30 03:01:51;;;;;;;11.20;7.68;;;;;;;;;;5070480;28;20348;-87
2023/08/30 03:12:12;;;;;;;10.10;7.20;;;;;;;;;;5096973;28;20029;-87
2023/08/30 03:14:58;;;;;;;11.90;8.60;;;;;;;;;;5086031;28;20036;-87
2023/08/30 03:17:31;;;;;;;12.52;7.88;;;;;;;;;;5067833;28;20052;-87
2023/08/30 03:20:30;;;;;;;10.65;6.70;;;;;;;;;;5066782;28;20053;-88
2023/08/30 03:23:23;;;;;;;14.50;8.18;;;;;;;;;;5068285;28;20040;-86
2023/08/30 03:25:59;;;;;;;11.13;8.73;;;;;;;;;;5066158;28;20486;-87
2023/08/30 03:28:33;;;;;;;13.50;9.18;;;;;;;;;;5067064;28;20433;-87
2023/08/30 03:31:24;;;;;;;13.73;8.93;;;;;;;;;;5064834;28;20391;-88
2023/08/30 03:33:52;;;;;;;12.82;10.45;;;;;;;;;;5064621;28;20342;-88
2023/08/30 03:36:54;;;;;;;11.90;9.63;;;;;;;;;;5181782;22;20041;-87
2023/08/30 04:29:04;;;;;;;21.02;14.82;;;;;;;;;;5713447;22;20025;-88
2023/08/30 04:31:51;;;;;;;18.63;13.10;;;;;;;;;;5071253;28;20116;-89
2023/08/30 04:34:47;;;;;;;21.05;14.18;;;;;;;;;;5061732;28;20025;-90
2023/08/30 04:51:52;;;;;;;23.55;13.88;;;;;;;;;;5318837;22;20105;-89
2023/08/30 04:57:24;;;;;;;18.38;12.95;;;;;;;;;;6187533;22;20020;-88
2023/08/30 05:00:53;;;;;;;18.27;13.73;;;;;;;;;;5055527;28;20071;-89
2023/08/30 05:04:00;;;;;;;16.13;13.77;;;;;;;;;;5055786;28;20038;-91
2023/08/30 06:32:35;;;;;;;;;;;;;;;;;;;;;
2023/08/30 06:48:12;;;;;;;15.98;8.75;;;;;;;;;;5071109;28;20036;-89
2023/08/30 06:51:10;;;;;;;14.60;8.98;;;;;;;;;;5306372;22;20121;-89
2023/08/30 06:56:44;;;;;;;19.33;10.93;;;;;;;;;;5347260;22;20037;-89
2023/08/30 07:02:09;;;;;;;22.23;11.18;;;;;;;;;;5941351;22;20449;-91
2023/08/30 08:41:49;;;;;;;10.70;5.00;;;;;;;;;;5884625;22;21645;-91
2023/08/30 09:08:26;;;;;;;11.07;4.77;;;;;;;;;;4308379;22;20041;-90
2023/08/30 13:03:03;;;;;;;18.80;7.85;;;;;;;;;;5654247;22;20120;-91
2023/08/30 13:13:50;;;;;;;18.35;9.75;;;;;;;;;;5314540;22;20048;-89
2023/08/30 13:28:22;;;;;;;20.92;10.90;;;;;;;;;;5626730;22;20073;-89
2023/08/30 13:33:36;;;;;;;18.15;10.77;;;;;;;;;;5398445;22;20055;-89
2023/08/30 13:41:24;;;;;;;19.30;11.50;;;;;;;;;;6058563;22;21130;-90
2023/08/30 13:46:56;;;;;;;19.40;11.48;;;;;;;;;;5754278;22;20045;-90
2023/08/30 13:50:05;;;;;;;17.98;10.88;;;;;;;;;;5533606;22;20053;-89
2023/08/30 15:08:42;;;;;;;35.80;20.38;;;;;;;;;;5065791;22;20040;-88
2023/08/30 15:46:57;;;;;;;23.08;16.05;;;;;;;;;;2833784;26;20063;-89
2023/08/30 15:50:04;;;;;;;24.08;16.60;;;;;;;;;;5076653;28;20097;-85
2023/08/30 15:55:46;;;;;;;32.13;17.92;;;;;;;;;;6139212;22;20012;-90
2023/08/30 15:58:55;;;;;;;24.52;15.52;;;;;;;;;;5077323;28;20028;-89
2023/08/30 16:33:19;;;;;;;;;;;;;;;;;;;;;
2023/08/30 16:41:30;;;;;;;19.38;12.07;;;;;;;;;;5322235;22;20071;-88
2023/08/30 16:52:39;;;;;;;14.38;11.75;;;;;;;;;;5081554;22;20036;-88
2023/08/30 16:55:22;;;;;;;16.10;11.68;;;;;;;;;;5037479;28;20049;-89
2023/08/30 16:58:10;;;;;;;15.52;11.85;;;;;;;;;;4972519;28;20051;-88
2023/08/30 17:03:45;;;;;;;17.52;11.95;;;;;;;;;;5208941;22;20063;-89
2023/08/30 17:13:32;;;;;;;;;;;;;;;;;;;;;
2023/08/30 17:27:24;;;;;;;19.25;13.93;;;;;;;;;;6014812;22;20020;-86
2023/08/30 17:38:58;;;;;;;17.98;14.90;;;;;;;;;;5328067;22;20045;-90
2023/08/30 17:44:23;;;;;;;18.73;15.05;;;;;;;;;;5288573;22;20061;-85
2023/08/30 17:47:20;;;;;;;17.27;15.40;;;;;;;;;;5038107;28;20061;-88
2023/08/30 18:10:51;;;;;;;23.85;17.27;;;;;;;;;;871743;22;20309;-88
2023/08/30 18:16:32;;;;;;;23.67;17.02;;;;;;;;;;5165134;22;20033;-89
2023/08/30 18:19:15;;;;;;;;;;;;;;;;;;5074736;28;20074;-88
2023/08/30 18:22:07;;;;;;;20.10;15.55;;;;;;;;;;5062944;28;19932;-88
2023/08/30 18:30:38;;;;;;;25.10;17.58;;;;;;;;;;5363568;22;20079;-89
2023/08/30 18:39:22;;;;;;;22.70;16.60;;;;;;;;;;5407508;22;20086;-87
2023/08/30 18:42:32;;;;;;;19.90;16.13;;;;;;;;;;5063153;28;20040;-84
2023/08/30 18:45:14;;;;;;;3.97;2.72;;;;;;;;;;5054651;28;20072;-88
2023/08/30 18:48:29;;;;;;;22.25;17.70;;;;;;;;;;5076087;28;20074;-89
2023/08/30 18:51:19;;;;;;;18.40;14.02;;;;;;;;;;4995365;28;20051;-89
2023/08/30 19:03:14;;;;;;;7.32;3.95;;;;;;;;;;5572789;22;20049;-90
2023/08/30 19:12:53;;;;;;;5.07;3.33;;;;;;;;;;5077470;28;20074;-88
2023/08/30 19:36:30;;;;;;;1.90;1.27;;;;;;;;;;4259142;22;20484;-87
2023/08/30 19:42:02;;;;;;;1.92;1.10;;;;;;;;;;4441186;26;20061;-88
2023/08/30 20:01:23;;;;;;;2.70;1.65;;;;;;;;;;5870686;22;20155;-88
2023/08/30 20:09:37;;;;;;;1.45;1.10;;;;;;;;;;5853097;22;20097;-88
2023/08/30 20:12:28;;;;;;;1.50;1.30;;;;;;;;;;5057674;28;20045;-89
2023/08/30 20:15:22;;;;;;;;;;;;;;;;;;;;;
2023/08/30 20:21:05;;;;;;;2.25;1.40;;;;;;;;;;5120715;22;20052;-86
2023/08/30 20:23:53;;;;;;;1.77;1.55;;;;;;;;;;5072923;28;20484;-86
2023/08/30 20:26:51;;;;;;;3.85;2.28;;;;;;;;;;5088858;28;20062;-86
2023/08/30 20:30:01;;;;;;;3.83;1.77;;;;;;;;;;5761216;22;20057;-85
2023/08/30 20:32:49;;;;;;;2.53;1.73;;;;;;;;;;5054503;28;20045;-86
2023/08/30 20:39:14;;;;;;;1.10;0.88;;;;;;;;;;5067967;28;20060;-86
2023/08/30 20:42:22;;;;;;;3.53;2.30;;;;;;;;;;5030749;28;20044;-86
2023/08/30 20:45:33;;;;;;;1.83;1.58;;;;;;;;;;5053686;28;20041;-85
2023/08/30 20:48:13;;;;;;;4.03;2.40;;;;;;;;;;5069431;28;20041;-85
2023/08/30 20:51:07;;;;;;;4.93;2.40;;;;;;;;;;5050495;28;20028;-85
2023/08/30 20:53:37;;;;;;;5.15;2.28;;;;;;;;;;5049221;28;20090;-85
2023/08/30 20:56:19;;;;;;;3.80;2.03;;;;;;;;;;5053129;28;20166;-84
2023/08/30 21:41:47;;;;;;;7.57;4.95;;;;;;;;;;5083353;28;20067;-85
2023/08/30 21:44:18;;;;;;;6.63;4.28;;;;;;;;;;5084730;28;20048;-87
2023/08/30 21:46:45;;;;;;;7.80;4.13;;;;;;;;;;5084402;28;20048;-85
2023/08/30 21:49:16;;;;;;;5.07;4.10;;;;;;;;;;5065438;28;20323;-86
2023/08/30 21:51:51;;;;;;;6.78;4.93;;;;;;;;;;5082698;28;20070;-86
2023/08/30 21:54:19;;;;;;;6.25;5.10;;;;;;;;;;5068072;28;20247;-86
2023/08/30 21:56:48;;;;;;;7.63;4.72;;;;;;;;;;5082707;28;20054;-86
2023/08/30 21:59:17;;;;;;;5.10;3.97;;;;;;;;;;5083371;28;20440;-86
2023/08/30 22:01:45;;;;;;;5.22;3.95;;;;;;;;;;5065566;28;20425;-86
2023/08/30 22:04:13;;;;;;;9.43;4.88;;;;;;;;;;5082886;28;20349;-87
2023/08/30 22:06:42;;;;;;;6.22;4.57;;;;;;;;;;5065340;28;20063;-85
2023/08/30 22:09:10;;;;;;;6.20;3.88;;;;;;;;;;5065225;28;20112;-86
2023/08/30 22:11:39;;;;;;;5.22;4.05;;;;;;;;;;5065778;28;20471;-86
2023/08/30 22:14:10;;;;;;;6.10;4.45;;;;;;;;;;5065590;28;20486;-86
2023/08/30 22:16:41;;;;;;;5.55;3.72;;;;;;;;;;5071909;28;20104;-85
2023/08/30 22:19:11;;;;;;;6.35;4.35;;;;;;;;;;5069957;28;20049;-86
2023/08/30 22:21:44;;;;;;;7.10;4.70;;;;;;;;;;5066572;28;20472;-87
2023/08/30 22:24:13;;;;;;;7.70;4.65;;;;;;;;;;5085847;28;20063;-84
2023/08/30 22:26:47;;;;;;;9.02;5.45;;;;;;;;;;5085003;28;20057;-85
2023/08/30 22:29:24;;;;;;;0.40;0.30;;;;;;;;;;5084926;28;20310;-85
2023/08/30 22:31:52;;;;;;;8.05;5.40;;;;;;;;;;5085259;28;20083;-85
2023/08/30 22:34:21;;;;;;;4.43;2.67;;;;;;;;;;5068511;28;20179;-85
2023/08/30 22:36:52;;;;;;;6.30;4.55;;;;;;;;;;5085078;28;20125;-84
2023/08/30 22:39:25;;;;;;;9.18;5.32;;;;;;;;;;5085575;28;20044;-85
2023/08/30 22:41:53;;;;;;;7.75;5.47;;;;;;;;;;5046380;28;20088;-86
2023/08/30 22:44:23;;;;;;;7.15;5.18;;;;;;;;;;5044584;28;20054;-85
2023/08/30 22:46:54;;;;;;;11.73;5.00;;;;;;;;;;5046417;28;20110;-85
2023/08/30 22:49:31;;;;;;;9.50;4.75;;;;;;;;;;5052961;28;20037;-86
2023/08/30 22:52:11;;;;;;;7.82;4.93;;;;;;;;;;5053191;28;20048;-86
2023/08/30 22:54:43;;;;;;;6.70;3.85;;;;;;;;;;5052905;28;20072;-86
2023/08/30 22:57:14;;;;;;;7.57;5.33;;;;;;;;;;5053524;28;20059;-86
2023/08/30 23:00:02;;;;;;;6.80;4.57;;;;;;;;;;5041920;28;20056;-86
2023/08/30 23:02:34;;;;;;;10.25;5.63;;;;;;;;;;5054988;28;20125;-86
2023/08/30 23:05:05;;;;;;;8.70;4.90;;;;;;;;;;5051829;28;20109;-86
2023/08/30 23:07:34;;;;;;;7.63;4.53;;;;;;;;;;5050788;28;20053;-87
2023/08/30 23:10:08;;;;;;;8.82;4.47;;;;;;;;;;5052065;28;20069;-86
2023/08/30 23:12:40;;;;;;;8.90;4.15;;;;;;;;;;5050311;28;20053;-85
2023/08/30 23:15:13;;;;;;;8.50;4.97;;;;;;;;;;5052889;28;20251;-86
2023/08/30 23:17:45;;;;;;;8.77;4.70;;;;;;;;;;5052197;28;20076;-86
2023/08/30 23:20:20;;;;;;;9.73;4.90;;;;;;;;;;5052122;28;20065;-86
2023/08/30 23:22:58;;;;;;;6.25;2.67;;;;;;;;;;5052385;28;20052;-87
2023/08/30 23:25:28;;;;;;;7.90;4.53;;;;;;;;;;5051939;28;20117;-86
2023/08/30 23:27:57;;;;;;;7.45;4.47;;;;;;;;;;5051891;28;20057;-86
2023/08/30 23:30:35;;;;;;;9.75;4.65;;;;;;;;;;5047609;28;20069;-86
2023/08/30 23:33:06;;;;;;;11.32;5.28;;;;;;;;;;5046441;28;20092;-88
2023/08/30 23:35:34;;;;;;;9.68;4.47;;;;;;;;;;5051288;28;20050;-85
2023/08/30 23:38:05;;;;;;;11.10;4.43;;;;;;;;;;5046839;28;20049;-85
2023/08/30 23:40:37;;;;;;;5.75;3.83;;;;;;;;;;5066497;28;20048;-86
2023/08/30 23:43:08;;;;;;;7.40;4.05;;;;;;;;;;5087436;28;20118;-86
2023/08/30 23:45:38;;;;;;;5.78;2.60;;;;;;;;;;5070134;28;20044;-86
2023/08/30 23:48:14;;;;;;;6.78;4.50;;;;;;;;;;5074911;28;20045;-86
2023/08/30 23:50:45;;;;;;;11.95;4.70;;;;;;;;;;5072215;28;20461;-86
2023/08/30 23:53:15;;;;;;;10.57;4.85;;;;;;;;;;5068624;28;20460;-86
2023/08/30 23:55:47;;;;;;;12.50;5.07;;;;;;;;;;5068003;28;20338;-86
2023/08/30 23:58:16;;;;;;;7.07;4.25;;;;;;;;;;5070830;28;20102;-85
